createdAt,value
2017-05-17T00:00:04.339Z,89.63
2017-05-17T00:00:08.818Z,89.92
2017-05-17T00:00:13.022Z,89.82
2017-05-17T00:00:17.337Z,89.92
2017-05-17T00:00:21.654Z,90.01
2017-05-17T00:00:25.844Z,89.82
2017-05-17T00:00:30.273Z,89.82
2017-05-17T00:00:34.469Z,89.82
2017-05-17T00:00:38.926Z,89.63
2017-05-17T00:00:43.240Z,90.01
2017-05-17T00:00:47.551Z,90.01
2017-05-17T00:00:51.890Z,89.73
2017-05-17T00:00:56.338Z,89.53
2017-05-17T00:01:00.774Z,89.73
2017-05-17T00:01:05.562Z,89.73
2017-05-17T00:01:09.868Z,89.82
2017-05-17T00:01:14.297Z,89.73
2017-05-17T00:01:18.726Z,89.53
2017-05-17T00:01:23.150Z,89.34
2017-05-17T00:01:27.469Z,90.49
2017-05-17T00:01:31.902Z,90.39
2017-05-17T00:01:36.327Z,90.2
2017-05-17T00:01:40.754Z,90.3
2017-05-17T00:01:45.185Z,90.2
2017-05-17T00:01:49.500Z,90.2
2017-05-17T00:01:53.925Z,90.68
2017-05-17T00:01:58.351Z,90.49
2017-05-17T00:02:03.149Z,90.39
2017-05-17T00:02:07.351Z,90.49
2017-05-17T00:02:11.554Z,90.97
2017-05-17T00:02:15.877Z,90.78
2017-05-17T00:02:20.193Z,91.06
2017-05-17T00:02:24.552Z,90.97
2017-05-17T00:02:28.860Z,90.88
2017-05-17T00:02:33.285Z,91.16
2017-05-17T00:02:37.713Z,91.16
2017-05-17T00:02:42.142Z,90.88
2017-05-17T00:02:46.573Z,90.88
2017-05-17T00:02:51.006Z,90.97
2017-05-17T00:02:55.445Z,90.97
2017-05-17T00:02:59.874Z,91.06
2017-05-17T00:03:04.313Z,90.78
2017-05-17T00:03:08.747Z,90.88
2017-05-17T00:03:13.059Z,91.16
2017-05-17T00:03:17.253Z,90.88
2017-05-17T00:03:21.579Z,91.06
2017-05-17T00:03:26.015Z,91.25
2017-05-17T00:03:30.326Z,91.35
2017-05-17T00:03:34.761Z,91.35
2017-05-17T00:03:39.187Z,91.83
2017-05-17T00:03:43.618Z,91.45
2017-05-17T00:03:48.055Z,91.35
2017-05-17T00:03:52.486Z,91.54
2017-05-17T00:03:56.919Z,91.45
2017-05-17T00:04:01.405Z,91.45
2017-05-17T00:04:05.720Z,91.16
2017-05-17T00:04:10.048Z,91.54
2017-05-17T00:04:14.370Z,91.25
2017-05-17T00:04:18.805Z,91.74
2017-05-17T00:04:23.238Z,91.74
2017-05-17T00:04:27.666Z,91.83
2017-05-17T00:04:32.101Z,92.21
2017-05-17T00:04:36.403Z,91.74
2017-05-17T00:04:40.826Z,91.93
2017-05-17T00:04:45.272Z,92.4
2017-05-17T00:04:49.697Z,92.59
2017-05-17T00:04:54.136Z,92.59
2017-05-17T00:04:58.567Z,92.11
2017-05-17T00:05:03.180Z,92.02
2017-05-17T00:05:07.607Z,91.93
2017-05-17T00:05:11.918Z,91.74
2017-05-17T00:05:16.350Z,91.64
2017-05-17T00:05:20.554Z,91.93
2017-05-17T00:05:24.866Z,91.35
2017-05-17T00:05:29.293Z,91.64
2017-05-17T00:05:33.603Z,91.45
2017-05-17T00:05:38.033Z,91.83
2017-05-17T00:05:42.455Z,92.02
2017-05-17T00:05:46.894Z,92.3
2017-05-17T00:05:51.385Z,92.21
2017-05-17T00:05:55.697Z,92.3
2017-05-17T00:06:00.174Z,92.21
2017-05-17T00:06:04.605Z,92.21
2017-05-17T00:06:08.914Z,92.88
2017-05-17T00:06:13.343Z,92.88
2017-05-17T00:06:17.547Z,92.79
2017-05-17T00:06:21.971Z,92.97
2017-05-17T00:06:26.399Z,93.16
2017-05-17T00:06:30.831Z,92.88
2017-05-17T00:06:35.153Z,93.36
2017-05-17T00:06:39.575Z,93.84
2017-05-17T00:06:44.015Z,93.93
2017-05-17T00:06:48.272Z,93.84
2017-05-17T00:06:52.588Z,93.65
2017-05-17T00:06:57.030Z,93.84
2017-05-17T00:07:01.459Z,94.22
2017-05-17T00:07:06.090Z,93.93
2017-05-17T00:07:10.525Z,94.51
2017-05-17T00:07:15.007Z,94.79
2017-05-17T00:07:19.324Z,94.79
2017-05-17T00:07:23.807Z,94.79
2017-05-17T00:07:28.239Z,94.7
2017-05-17T00:07:32.673Z,94.6
2017-05-17T00:07:37.108Z,94.98
2017-05-17T00:07:41.549Z,94.89
2017-05-17T00:07:45.861Z,95.27
2017-05-17T00:07:50.299Z,95.36
2017-05-17T00:07:54.743Z,95.07
2017-05-17T00:07:59.172Z,95.46
2017-05-17T00:08:03.604Z,95.75
2017-05-17T00:08:07.913Z,95.36
2017-05-17T00:08:12.349Z,95.56
2017-05-17T00:08:16.775Z,95.36
2017-05-17T00:08:21.215Z,95.36
2017-05-17T00:08:25.536Z,95.65
2017-05-17T00:08:29.979Z,96.22
2017-05-17T00:08:34.413Z,95.94
2017-05-17T00:08:38.727Z,95.94
2017-05-17T00:08:43.150Z,96.32
2017-05-17T00:08:47.459Z,96.03
2017-05-17T00:08:51.889Z,96.22
2017-05-17T00:08:56.330Z,96.51
2017-05-17T00:09:00.756Z,97.08
2017-05-17T00:09:05.250Z,96.8
2017-05-17T00:09:09.447Z,96.7
2017-05-17T00:09:13.873Z,96.51
2017-05-17T00:09:18.315Z,97.08
2017-05-17T00:09:22.752Z,96.89
2017-05-17T00:09:27.181Z,97.18
2017-05-17T00:09:31.619Z,97.37
2017-05-17T00:09:36.054Z,97.94
2017-05-17T00:09:40.362Z,97.75
2017-05-17T00:09:44.674Z,97.75
2017-05-17T00:09:49.106Z,97.75
2017-05-17T00:09:53.539Z,97.56
2017-05-17T00:09:57.858Z,97.85
2017-05-17T00:10:02.287Z,97.94
2017-05-17T00:10:06.606Z,97.85
2017-05-17T00:10:10.910Z,98.33
2017-05-17T00:10:15.343Z,98.13
2017-05-17T00:10:19.533Z,97.85
2017-05-17T00:10:23.962Z,97.85
2017-05-17T00:10:28.269Z,98.23
2017-05-17T00:10:32.761Z,98.04
2017-05-17T00:10:37.073Z,98.42
2017-05-17T00:10:41.501Z,98.52
2017-05-17T00:10:45.934Z,98.33
2017-05-17T00:10:50.366Z,99.09
2017-05-17T00:10:54.792Z,98.61
2017-05-17T00:10:59.222Z,98.42
2017-05-17T00:11:03.662Z,98.61
2017-05-17T00:11:08.095Z,98.9
2017-05-17T00:11:12.532Z,98.71
2017-05-17T00:11:16.966Z,98.9
2017-05-17T00:11:21.281Z,99.19
2017-05-17T00:11:25.715Z,99.38
2017-05-17T00:11:30.081Z,99.14
2017-05-17T00:11:34.534Z,99.23
2017-05-17T00:11:38.896Z,99.23
2017-05-17T00:11:43.326Z,99.52
2017-05-17T00:11:47.755Z,99.99
2017-05-17T00:11:52.072Z,99.99
2017-05-17T00:11:56.510Z,99.99
2017-05-17T00:12:00.985Z,99.9
2017-05-17T00:12:05.513Z,99.99
2017-05-17T00:12:09.478Z,99.99
2017-05-17T00:12:13.791Z,99.99
2017-05-17T00:12:18.102Z,99.99
2017-05-17T00:12:22.539Z,99.99
2017-05-17T00:12:26.849Z,99.99
2017-05-17T00:12:31.167Z,99.99
2017-05-17T00:12:35.598Z,99.99
2017-05-17T00:12:39.909Z,99.99
2017-05-17T00:12:44.353Z,99.99
2017-05-17T00:12:48.785Z,99.99
2017-05-17T00:12:53.209Z,99.99
2017-05-17T00:12:57.654Z,99.99
2017-05-17T00:13:01.975Z,99.99
2017-05-17T00:13:06.343Z,99.99
2017-05-17T00:13:10.662Z,99.99
2017-05-17T00:13:15.094Z,99.99
2017-05-17T00:13:19.526Z,99.99
2017-05-17T00:13:23.844Z,99.99
2017-05-17T00:13:28.228Z,99.99
2017-05-17T00:13:32.663Z,99.99
2017-05-17T00:13:37.097Z,99.99
2017-05-17T00:13:41.528Z,99.99
2017-05-17T00:13:45.963Z,99.99
2017-05-17T00:13:50.401Z,99.99
2017-05-17T00:13:54.849Z,99.99
2017-05-17T00:13:59.047Z,99.99
2017-05-17T00:14:03.477Z,99.99
2017-05-17T00:14:07.791Z,99.99
2017-05-17T00:14:12.221Z,99.99
2017-05-17T00:14:16.662Z,99.99
2017-05-17T00:14:21.146Z,99.99
2017-05-17T00:14:25.474Z,99.99
2017-05-17T00:14:29.904Z,99.99
2017-05-17T00:14:34.349Z,99.99
2017-05-17T00:14:38.780Z,99.99
2017-05-17T00:14:42.978Z,99.99
2017-05-17T00:14:47.426Z,99.99
2017-05-17T00:14:51.750Z,99.99
2017-05-17T00:14:56.213Z,99.99
2017-05-17T00:15:00.641Z,99.99
2017-05-17T00:15:05.273Z,99.99
2017-05-17T00:15:09.707Z,99.99
2017-05-17T00:15:14.151Z,99.99
2017-05-17T00:15:18.591Z,99.99
2017-05-17T00:15:23.024Z,99.99
2017-05-17T00:15:27.461Z,99.99
2017-05-17T00:15:31.777Z,99.99
2017-05-17T00:15:36.205Z,99.99
2017-05-17T00:15:40.645Z,99.99
2017-05-17T00:15:45.142Z,99.99
2017-05-17T00:15:49.577Z,99.99
2017-05-17T00:15:54.030Z,99.99
2017-05-17T00:15:58.460Z,99.99
2017-05-17T00:16:02.779Z,99.99
2017-05-17T00:16:07.219Z,99.99
2017-05-17T00:16:11.651Z,99.99
2017-05-17T00:16:15.959Z,99.99
2017-05-17T00:16:20.276Z,99.99
2017-05-17T00:16:24.590Z,99.99
2017-05-17T00:16:29.017Z,99.99
2017-05-17T00:16:33.450Z,99.99
2017-05-17T00:16:37.769Z,99.99
2017-05-17T00:16:42.194Z,99.99
2017-05-17T00:16:46.631Z,99.99
2017-05-17T00:16:51.065Z,99.99
2017-05-17T00:16:55.157Z,99.99
2017-05-17T00:16:59.359Z,99.99
2017-05-17T00:17:03.790Z,99.99
2017-05-17T00:17:07.992Z,99.99
2017-05-17T00:17:12.297Z,99.99
2017-05-17T00:17:16.606Z,99.99
2017-05-17T00:17:21.091Z,99.99
2017-05-17T00:17:25.528Z,99.99
2017-05-17T00:17:29.956Z,99.99
2017-05-17T00:17:34.276Z,99.99
2017-05-17T00:17:38.703Z,99.99
2017-05-17T00:17:43.142Z,99.99
2017-05-17T00:17:47.579Z,99.99
2017-05-17T00:17:52.008Z,99.99
2017-05-17T00:17:56.433Z,99.99
2017-05-17T00:18:00.876Z,99.99
2017-05-17T00:18:05.554Z,99.99
2017-05-17T00:18:09.992Z,99.99
2017-05-17T00:18:14.426Z,99.99
2017-05-17T00:18:18.741Z,99.99
2017-05-17T00:18:23.225Z,99.99
2017-05-17T00:18:27.540Z,99.99
2017-05-17T00:18:31.966Z,99.99
2017-05-17T00:18:36.284Z,99.99
2017-05-17T00:18:40.614Z,99.99
2017-05-17T00:18:44.923Z,99.99
2017-05-17T00:18:49.358Z,99.99
2017-05-17T00:18:53.783Z,99.99
2017-05-17T00:18:58.231Z,99.99
2017-05-17T00:19:02.660Z,99.99
2017-05-17T00:19:07.098Z,99.99
2017-05-17T00:19:11.535Z,99.99
2017-05-17T00:19:15.854Z,99.99
2017-05-17T00:19:20.289Z,99.99
2017-05-17T00:19:24.669Z,99.99
2017-05-17T00:19:29.105Z,99.99
2017-05-17T00:19:33.538Z,99.99
2017-05-17T00:19:37.973Z,99.99
2017-05-17T00:19:42.408Z,99.99
2017-05-17T00:19:46.838Z,99.99
2017-05-17T00:19:51.316Z,99.99
2017-05-17T00:19:55.643Z,99.99
2017-05-17T00:20:00.074Z,99.99
2017-05-17T00:20:04.702Z,99.99
2017-05-17T00:20:09.025Z,99.99
2017-05-17T00:20:13.454Z,99.99
2017-05-17T00:20:17.881Z,99.99
2017-05-17T00:20:22.306Z,99.99
2017-05-17T00:20:26.618Z,99.99
2017-05-17T00:20:31.045Z,99.99
2017-05-17T00:20:35.362Z,99.99
2017-05-17T00:20:39.789Z,99.99
2017-05-17T00:20:44.227Z,99.99
2017-05-17T00:20:48.663Z,99.99
2017-05-17T00:20:53.092Z,99.99
2017-05-17T00:20:57.516Z,99.99
2017-05-17T00:21:01.839Z,99.99
2017-05-17T00:21:06.273Z,99.99
2017-05-17T00:21:10.588Z,99.99
2017-05-17T00:21:15.014Z,99.99
2017-05-17T00:21:19.489Z,99.99
2017-05-17T00:21:23.921Z,99.99
2017-05-17T00:21:28.234Z,99.99
2017-05-17T00:21:32.721Z,99.99
2017-05-17T00:21:37.043Z,99.99
2017-05-17T00:21:41.355Z,99.99
2017-05-17T00:21:45.674Z,99.99
2017-05-17T00:21:50.109Z,99.99
2017-05-17T00:21:54.426Z,99.99
2017-05-17T00:21:58.900Z,99.99
2017-05-17T00:22:03.383Z,99.99
2017-05-17T00:22:07.697Z,99.99
2017-05-17T00:22:12.130Z,99.99
2017-05-17T00:22:16.435Z,99.99
2017-05-17T00:22:20.747Z,99.99
2017-05-17T00:22:25.060Z,99.99
2017-05-17T00:22:29.491Z,99.99
2017-05-17T00:22:33.924Z,99.99
2017-05-17T00:22:38.358Z,99.99
2017-05-17T00:22:42.793Z,99.99
2017-05-17T00:22:47.121Z,99.99
2017-05-17T00:22:51.551Z,99.99
2017-05-17T00:22:56.002Z,99.99
2017-05-17T00:23:00.431Z,99.99
2017-05-17T00:23:04.861Z,99.99
2017-05-17T00:23:09.062Z,99.99
2017-05-17T00:23:13.543Z,99.99
2017-05-17T00:23:17.857Z,99.99
2017-05-17T00:23:22.161Z,99.99
2017-05-17T00:23:26.599Z,99.99
2017-05-17T00:23:30.914Z,99.99
2017-05-17T00:23:35.110Z,99.99
2017-05-17T00:23:39.414Z,99.99
2017-05-17T00:23:43.616Z,99.99
2017-05-17T00:23:47.940Z,99.99
2017-05-17T00:23:52.364Z,99.99
2017-05-17T00:23:56.795Z,99.99
2017-05-17T00:24:01.227Z,99.99
2017-05-17T00:24:05.661Z,99.99
2017-05-17T00:24:09.853Z,99.99
2017-05-17T00:24:14.275Z,99.99
2017-05-17T00:24:18.713Z,99.99
2017-05-17T00:24:23.155Z,99.99
2017-05-17T00:24:27.464Z,99.99
2017-05-17T00:24:31.892Z,99.99
2017-05-17T00:24:36.321Z,99.99
2017-05-17T00:24:40.752Z,99.99
2017-05-17T00:24:45.188Z,99.99
2017-05-17T00:24:49.674Z,99.99
2017-05-17T00:24:54.115Z,99.99
2017-05-17T00:24:58.550Z,99.99
2017-05-17T00:25:03.243Z,99.99
2017-05-17T00:25:07.560Z,99.99
2017-05-17T00:25:11.752Z,99.99
2017-05-17T00:25:15.960Z,99.99
2017-05-17T00:25:20.153Z,99.99
2017-05-17T00:25:24.473Z,99.99
2017-05-17T00:25:28.902Z,99.99
2017-05-17T00:25:33.346Z,99.99
2017-05-17T00:25:37.774Z,99.99
2017-05-17T00:25:42.081Z,99.99
2017-05-17T00:25:46.518Z,99.99
2017-05-17T00:25:50.995Z,99.99
2017-05-17T00:25:55.425Z,99.99
2017-05-17T00:25:59.866Z,99.99
2017-05-17T00:26:04.325Z,99.99
2017-05-17T00:26:08.635Z,99.99
2017-05-17T00:26:12.883Z,99.99
2017-05-17T00:26:17.197Z,99.99
2017-05-17T00:26:21.629Z,99.99
2017-05-17T00:26:25.831Z,99.99
2017-05-17T00:26:30.143Z,99.99
2017-05-17T00:26:34.457Z,99.99
2017-05-17T00:26:38.884Z,99.99
2017-05-17T00:26:43.206Z,99.99
2017-05-17T00:26:47.654Z,99.99
2017-05-17T00:26:52.081Z,99.99
2017-05-17T00:26:56.517Z,99.99
2017-05-17T00:27:00.952Z,99.99
2017-05-17T00:27:05.636Z,99.99
2017-05-17T00:27:09.938Z,99.99
2017-05-17T00:27:14.374Z,99.99
2017-05-17T00:27:18.695Z,99.99
2017-05-17T00:27:23.122Z,99.99
2017-05-17T00:27:27.193Z,99.99
2017-05-17T00:27:31.638Z,99.99
2017-05-17T00:27:36.080Z,99.99
2017-05-17T00:27:40.521Z,99.99
2017-05-17T00:27:44.957Z,99.99
2017-05-17T00:27:49.319Z,99.99
2017-05-17T00:27:53.753Z,99.99
2017-05-17T00:27:58.187Z,99.99
2017-05-17T00:28:02.965Z,99.99
2017-05-17T00:28:07.280Z,99.99
2017-05-17T00:28:11.603Z,99.99
2017-05-17T00:28:15.933Z,99.99
2017-05-17T00:28:20.362Z,99.99
2017-05-17T00:28:24.794Z,99.99
2017-05-17T00:28:29.234Z,99.99
2017-05-17T00:28:33.675Z,99.99
2017-05-17T00:28:38.106Z,99.99
2017-05-17T00:28:42.486Z,99.99
2017-05-17T00:28:46.916Z,99.99
2017-05-17T00:28:51.353Z,99.99
2017-05-17T00:28:55.834Z,99.99
2017-05-17T00:29:00.261Z,99.99
2017-05-17T00:29:04.859Z,99.99
2017-05-17T00:29:09.172Z,99.99
2017-05-17T00:29:13.478Z,99.99
2017-05-17T00:29:17.788Z,99.99
2017-05-17T00:29:22.238Z,99.99
2017-05-17T00:29:26.663Z,99.99
2017-05-17T00:29:31.093Z,99.99
2017-05-17T00:29:35.298Z,99.99
2017-05-17T00:29:39.725Z,99.99
2017-05-17T00:29:44.036Z,99.99
2017-05-17T00:29:48.522Z,99.99
2017-05-17T00:29:52.843Z,99.99
2017-05-17T00:29:57.296Z,99.99
2017-05-17T00:30:01.727Z,99.99
2017-05-17T00:30:05.975Z,99.99
2017-05-17T00:30:10.292Z,99.99
2017-05-17T00:30:14.718Z,99.99
2017-05-17T00:30:19.020Z,99.99
2017-05-17T00:30:23.327Z,99.99
2017-05-17T00:30:27.634Z,99.99
2017-05-17T00:30:31.941Z,99.99
2017-05-17T00:30:36.253Z,99.99
2017-05-17T00:30:40.684Z,99.99
2017-05-17T00:30:44.994Z,99.99
2017-05-17T00:30:49.430Z,99.99
2017-05-17T00:30:53.858Z,99.99
2017-05-17T00:30:58.286Z,99.99
2017-05-17T00:31:02.718Z,99.99
2017-05-17T00:31:07.032Z,99.99
2017-05-17T00:31:11.475Z,99.99
2017-05-17T00:31:15.913Z,99.99
2017-05-17T00:31:20.342Z,99.99
2017-05-17T00:31:24.653Z,99.99
2017-05-17T00:31:29.083Z,99.99
2017-05-17T00:31:33.511Z,99.99
2017-05-17T00:31:37.941Z,99.99
2017-05-17T00:31:42.365Z,99.99
2017-05-17T00:31:46.798Z,99.99
2017-05-17T00:31:51.239Z,99.99
2017-05-17T00:31:55.552Z,99.99
2017-05-17T00:31:59.925Z,99.99
2017-05-17T00:32:04.166Z,99.99
2017-05-17T00:32:08.475Z,99.99
2017-05-17T00:32:12.798Z,99.99
2017-05-17T00:32:17.225Z,99.99
2017-05-17T00:32:21.647Z,99.99
2017-05-17T00:32:26.075Z,99.99
2017-05-17T00:32:30.516Z,99.99
2017-05-17T00:32:34.966Z,99.99
2017-05-17T00:32:39.397Z,99.99
2017-05-17T00:32:43.721Z,99.99
2017-05-17T00:32:48.038Z,99.99
2017-05-17T00:32:52.228Z,99.99
2017-05-17T00:32:56.543Z,99.99
2017-05-17T00:33:00.978Z,99.99
2017-05-17T00:33:05.712Z,99.99
2017-05-17T00:33:10.036Z,99.99
2017-05-17T00:33:14.472Z,99.99
2017-05-17T00:33:18.790Z,99.99
2017-05-17T00:33:23.214Z,99.99
2017-05-17T00:33:27.650Z,99.99
2017-05-17T00:33:32.130Z,99.99
2017-05-17T00:33:36.449Z,99.99
2017-05-17T00:33:40.886Z,99.99
2017-05-17T00:33:45.328Z,99.99
2017-05-17T00:33:49.759Z,99.99
2017-05-17T00:33:53.952Z,99.99
2017-05-17T00:33:58.284Z,99.99
2017-05-17T00:34:02.714Z,99.99
2017-05-17T00:34:07.177Z,99.99
2017-05-17T00:34:11.611Z,99.99
2017-05-17T00:34:15.813Z,99.99
2017-05-17T00:34:20.241Z,99.99
2017-05-17T00:34:24.677Z,99.99
2017-05-17T00:34:29.111Z,99.99
2017-05-17T00:34:33.541Z,99.99
2017-05-17T00:34:37.970Z,99.99
2017-05-17T00:34:42.397Z,99.99
2017-05-17T00:34:46.584Z,99.99
2017-05-17T00:34:51.075Z,99.99
2017-05-17T00:34:55.515Z,99.99
2017-05-17T00:34:59.942Z,99.99
2017-05-17T00:35:04.374Z,99.99
2017-05-17T00:35:08.682Z,99.99
2017-05-17T00:35:13.105Z,99.99
2017-05-17T00:35:17.421Z,99.99
2017-05-17T00:35:21.737Z,99.99
2017-05-17T00:35:26.043Z,99.99
2017-05-17T00:35:30.470Z,99.99
2017-05-17T00:35:34.896Z,99.99
2017-05-17T00:35:39.323Z,99.99
2017-05-17T00:35:43.637Z,99.99
2017-05-17T00:35:48.063Z,99.99
2017-05-17T00:35:52.493Z,99.99
2017-05-17T00:35:56.935Z,99.99
2017-05-17T00:36:01.305Z,99.99
2017-05-17T00:36:05.736Z,99.99
2017-05-17T00:36:09.925Z,99.99
2017-05-17T00:36:14.249Z,99.99
2017-05-17T00:36:18.681Z,99.99
2017-05-17T00:36:23.111Z,99.99
2017-05-17T00:36:27.421Z,99.99
2017-05-17T00:36:31.855Z,99.99
2017-05-17T00:36:36.184Z,99.99
2017-05-17T00:36:40.618Z,99.99
2017-05-17T00:36:45.049Z,99.99
2017-05-17T00:36:49.526Z,99.99
2017-05-17T00:36:53.956Z,99.99
2017-05-17T00:36:58.285Z,99.99
2017-05-17T00:37:03.018Z,99.99
2017-05-17T00:37:07.220Z,99.99
2017-05-17T00:37:11.651Z,99.99
2017-05-17T00:37:16.079Z,99.99
2017-05-17T00:37:20.396Z,99.99
2017-05-17T00:37:24.714Z,99.99
2017-05-17T00:37:29.151Z,99.99
2017-05-17T00:37:33.466Z,99.99
2017-05-17T00:37:37.890Z,99.99
2017-05-17T00:37:42.323Z,99.99
2017-05-17T00:37:46.757Z,99.99
2017-05-17T00:37:51.065Z,99.99
2017-05-17T00:37:55.516Z,99.99
2017-05-17T00:37:59.947Z,99.99
2017-05-17T00:38:04.266Z,99.99
2017-05-17T00:38:08.460Z,99.99
2017-05-17T00:38:12.902Z,99.99
2017-05-17T00:38:17.349Z,99.99
2017-05-17T00:38:21.657Z,99.99
2017-05-17T00:38:25.986Z,99.99
2017-05-17T00:38:30.180Z,99.99
2017-05-17T00:38:34.606Z,99.99
2017-05-17T00:38:39.032Z,99.99
2017-05-17T00:38:43.478Z,99.99
2017-05-17T00:38:47.907Z,99.99
2017-05-17T00:38:52.334Z,99.99
2017-05-17T00:38:56.827Z,99.99
2017-05-17T00:39:01.141Z,99.99
2017-05-17T00:39:05.581Z,99.99
2017-05-17T00:39:10.013Z,99.99
2017-05-17T00:39:14.458Z,99.99
2017-05-17T00:39:18.882Z,99.99
2017-05-17T00:39:23.315Z,99.99
2017-05-17T00:39:27.758Z,99.99
2017-05-17T00:39:32.186Z,99.99
2017-05-17T00:39:36.623Z,99.99
2017-05-17T00:39:41.060Z,99.99
2017-05-17T00:39:45.490Z,99.99
2017-05-17T00:39:49.944Z,99.99
2017-05-17T00:39:54.426Z,99.99
2017-05-17T00:39:58.854Z,99.99
2017-05-17T00:40:03.413Z,99.99
2017-05-17T00:40:07.871Z,99.99
2017-05-17T00:40:12.178Z,99.99
2017-05-17T00:40:16.602Z,99.99
2017-05-17T00:40:20.793Z,99.99
2017-05-17T00:40:25.099Z,99.99
2017-05-17T00:40:29.525Z,99.99
2017-05-17T00:40:33.829Z,99.99
2017-05-17T00:40:38.138Z,99.99
2017-05-17T00:40:42.499Z,99.99
2017-05-17T00:40:46.924Z,99.99
2017-05-17T00:40:51.352Z,99.99
2017-05-17T00:40:55.667Z,99.99
2017-05-17T00:41:00.093Z,99.99
2017-05-17T00:41:04.521Z,99.99
2017-05-17T00:41:08.844Z,99.99
2017-05-17T00:41:13.273Z,99.99
2017-05-17T00:41:17.701Z,99.99
2017-05-17T00:41:22.130Z,99.99
2017-05-17T00:41:26.558Z,99.99
2017-05-17T00:41:30.991Z,99.99
2017-05-17T00:41:35.422Z,99.99
2017-05-17T00:41:39.848Z,99.99
2017-05-17T00:41:44.280Z,99.99
2017-05-17T00:41:48.600Z,99.99
2017-05-17T00:41:53.036Z,99.99
2017-05-17T00:41:57.373Z,99.99
2017-05-17T00:42:01.716Z,99.99
2017-05-17T00:42:06.132Z,99.99
2017-05-17T00:42:10.327Z,99.99
2017-05-17T00:42:14.757Z,99.99
2017-05-17T00:42:19.195Z,99.99
2017-05-17T00:42:23.620Z,99.99
2017-05-17T00:42:28.050Z,99.99
2017-05-17T00:42:32.483Z,99.99
2017-05-17T00:42:36.915Z,99.99
2017-05-17T00:42:41.345Z,99.99
2017-05-17T00:42:45.837Z,99.99
2017-05-17T00:42:50.281Z,99.99
2017-05-17T00:42:54.713Z,99.99
2017-05-17T00:42:59.145Z,99.99
2017-05-17T00:43:03.709Z,99.99
2017-05-17T00:43:08.021Z,99.99
2017-05-17T00:43:12.332Z,99.99
2017-05-17T00:43:16.759Z,99.99
2017-05-17T00:43:21.076Z,99.99
2017-05-17T00:43:25.388Z,99.99
2017-05-17T00:43:29.816Z,99.99
2017-05-17T00:43:34.252Z,99.99
2017-05-17T00:43:38.690Z,99.99
2017-05-17T00:43:43.118Z,99.99
2017-05-17T00:43:47.562Z,99.99
2017-05-17T00:43:51.945Z,99.99
2017-05-17T00:43:56.091Z,99.99
2017-05-17T00:44:00.399Z,99.99
2017-05-17T00:44:04.877Z,99.99
2017-05-17T00:44:09.068Z,99.99
2017-05-17T00:44:13.263Z,99.99
2017-05-17T00:44:17.694Z,99.99
2017-05-17T00:44:22.003Z,99.99
2017-05-17T00:44:26.442Z,99.99
2017-05-17T00:44:30.928Z,99.99
2017-05-17T00:44:35.370Z,99.99
2017-05-17T00:44:39.805Z,99.99
2017-05-17T00:44:44.291Z,99.99
2017-05-17T00:44:48.720Z,99.99
2017-05-17T00:44:53.080Z,99.99
2017-05-17T00:44:57.520Z,99.99
2017-05-17T00:45:01.951Z,99.99
2017-05-17T00:45:06.267Z,99.99
2017-05-17T00:45:10.702Z,99.99
2017-05-17T00:45:15.010Z,99.99
2017-05-17T00:45:19.323Z,99.99
2017-05-17T00:45:23.761Z,99.99
2017-05-17T00:45:28.071Z,99.99
2017-05-17T00:45:32.500Z,99.99
2017-05-17T00:45:36.930Z,99.99
2017-05-17T00:45:41.245Z,99.99
2017-05-17T00:45:45.674Z,99.99
2017-05-17T00:45:50.104Z,99.99
2017-05-17T00:45:54.531Z,99.99
2017-05-17T00:45:58.841Z,99.99
2017-05-17T00:46:03.322Z,99.99
2017-05-17T00:46:07.640Z,99.99
2017-05-17T00:46:11.843Z,99.99
2017-05-17T00:46:16.164Z,99.99
2017-05-17T00:46:20.591Z,99.99
2017-05-17T00:46:25.023Z,99.99
2017-05-17T00:46:29.450Z,99.99
2017-05-17T00:46:33.761Z,99.99
2017-05-17T00:46:37.958Z,99.99
2017-05-17T00:46:42.383Z,99.99
2017-05-17T00:46:46.812Z,99.99
2017-05-17T00:46:51.248Z,99.99
2017-05-17T00:46:55.560Z,99.9
2017-05-17T00:46:59.989Z,99.99
2017-05-17T00:47:04.421Z,99.99
2017-05-17T00:47:08.909Z,99.99
2017-05-17T00:47:13.346Z,99.9
2017-05-17T00:47:17.772Z,99.9
2017-05-17T00:47:22.266Z,99.99
2017-05-17T00:47:26.695Z,99.9
2017-05-17T00:47:31.007Z,99.99
2017-05-17T00:47:35.315Z,99.99
2017-05-17T00:47:39.629Z,99.99
2017-05-17T00:47:43.951Z,99.23
2017-05-17T00:47:48.445Z,99.62
2017-05-17T00:47:52.873Z,99.8
2017-05-17T00:47:57.206Z,99.23
2017-05-17T00:48:01.647Z,99.43
2017-05-17T00:48:06.080Z,99.23
2017-05-17T00:48:10.505Z,99.52
2017-05-17T00:48:14.932Z,99.23
2017-05-17T00:48:19.133Z,99.04
2017-05-17T00:48:23.565Z,99.04
2017-05-17T00:48:28.007Z,99.33
2017-05-17T00:48:32.450Z,99.33
2017-05-17T00:48:36.928Z,99.23
2017-05-17T00:48:41.357Z,98.85
2017-05-17T00:48:45.794Z,98.94
2017-05-17T00:48:50.277Z,98.75
2017-05-17T00:48:54.706Z,98.75
2017-05-17T00:48:59.147Z,98.75
2017-05-17T00:49:03.461Z,98.94
2017-05-17T00:49:07.892Z,98.75
2017-05-17T00:49:12.207Z,98.85
2017-05-17T00:49:16.644Z,98.47
2017-05-17T00:49:21.077Z,98.37
2017-05-17T00:49:25.511Z,98.47
2017-05-17T00:49:29.945Z,98.18
2017-05-17T00:49:34.377Z,98.28
2017-05-17T00:49:38.807Z,98.28
2017-05-17T00:49:43.240Z,98.28
2017-05-17T00:49:47.669Z,98.57
2017-05-17T00:49:52.106Z,98.47
2017-05-17T00:49:56.551Z,98.57
2017-05-17T00:50:00.980Z,98.57
2017-05-17T00:50:05.413Z,98.57
2017-05-17T00:50:09.730Z,98.18
2017-05-17T00:50:14.209Z,98.08
2017-05-17T00:50:18.399Z,98.18
2017-05-17T00:50:22.827Z,98.18
2017-05-17T00:50:27.261Z,98.08
2017-05-17T00:50:31.746Z,97.99
2017-05-17T00:50:36.169Z,98.08
2017-05-17T00:50:40.608Z,98.37
2017-05-17T00:50:45.113Z,98.08
2017-05-17T00:50:49.549Z,97.89
2017-05-17T00:50:53.977Z,97.89
2017-05-17T00:50:58.404Z,97.99
2017-05-17T00:51:03.088Z,97.71
2017-05-17T00:51:07.287Z,98.08
2017-05-17T00:51:11.599Z,97.61
2017-05-17T00:51:16.027Z,97.8
2017-05-17T00:51:20.366Z,97.99
2017-05-17T00:51:24.682Z,98.08
2017-05-17T00:51:29.114Z,98.28
2017-05-17T00:51:33.551Z,97.99
2017-05-17T00:51:37.979Z,98.28
2017-05-17T00:51:42.410Z,98.18
2017-05-17T00:51:46.842Z,97.8
2017-05-17T00:51:51.267Z,97.99
2017-05-17T00:51:55.694Z,98.28
2017-05-17T00:52:00.127Z,97.89
2017-05-17T00:52:04.382Z,97.61
2017-05-17T00:52:08.822Z,97.71
2017-05-17T00:52:13.264Z,97.61
2017-05-17T00:52:17.695Z,97.8
2017-05-17T00:52:22.121Z,97.32
2017-05-17T00:52:26.551Z,97.42
2017-05-17T00:52:31.033Z,97.23
2017-05-17T00:52:35.464Z,97.52
2017-05-17T00:52:39.903Z,97.32
2017-05-17T00:52:44.330Z,97.61
2017-05-17T00:52:48.767Z,97.61
2017-05-17T00:52:53.209Z,97.52
2017-05-17T00:52:57.401Z,97.42
2017-05-17T00:53:01.830Z,97.52
2017-05-17T00:53:06.202Z,97.23
2017-05-17T00:53:10.690Z,97.42
2017-05-17T00:53:15.122Z,97.61
2017-05-17T00:53:19.553Z,97.42
2017-05-17T00:53:23.912Z,97.42
2017-05-17T00:53:28.339Z,97.42
2017-05-17T00:53:32.832Z,97.32
2017-05-17T00:53:37.255Z,97.71
2017-05-17T00:53:41.687Z,97.61
2017-05-17T00:53:46.132Z,97.61
2017-05-17T00:53:50.443Z,97.71
2017-05-17T00:53:54.774Z,97.42
2017-05-17T00:53:59.212Z,97.8
2017-05-17T00:54:03.643Z,97.32
2017-05-17T00:54:07.838Z,97.52
2017-05-17T00:54:12.155Z,97.52
2017-05-17T00:54:16.473Z,97.52
2017-05-17T00:54:20.689Z,97.32
2017-05-17T00:54:25.010Z,97.23
2017-05-17T00:54:29.441Z,97.52
2017-05-17T00:54:33.696Z,97.23
2017-05-17T00:54:38.118Z,97.32
2017-05-17T00:54:42.546Z,97.32
2017-05-17T00:54:46.735Z,97.32
2017-05-17T00:54:51.162Z,97.42
2017-05-17T00:54:55.618Z,97.52
2017-05-17T00:55:00.050Z,97.42
2017-05-17T00:55:04.368Z,97.52
2017-05-17T00:55:08.803Z,97.52
2017-05-17T00:55:13.110Z,97.61
2017-05-17T00:55:17.421Z,97.61
2017-05-17T00:55:21.738Z,97.61
2017-05-17T00:55:26.052Z,97.61
2017-05-17T00:55:30.486Z,97.52
2017-05-17T00:55:34.916Z,97.23
2017-05-17T00:55:39.109Z,97.13
2017-05-17T00:55:43.422Z,97.32
2017-05-17T00:55:47.849Z,97.32
2017-05-17T00:55:52.275Z,97.32
2017-05-17T00:55:56.755Z,97.23
2017-05-17T00:56:01.070Z,97.52
2017-05-17T00:56:05.606Z,97.52
2017-05-17T00:56:09.919Z,97.23
2017-05-17T00:56:14.348Z,97.42
2017-05-17T00:56:18.655Z,97.52
2017-05-17T00:56:23.093Z,97.32
2017-05-17T00:56:27.451Z,97.32
2017-05-17T00:56:31.879Z,97.52
2017-05-17T00:56:36.188Z,97.71
2017-05-17T00:56:40.614Z,97.52